sensor_id;sensor_type;location;lat;lon;timestamp;temperature;humidity
7000;DHT22;3540;53.242;10.408;2023-02-04T00:01:38;3.20;99.90
7000;DHT22;3540;53.242;10.408;2023-02-04T00:04:04;3.00;99.90
7000;DHT22;3540;53.242;10.408;2023-02-04T00:06:30;3.00;99.90
7000;DHT22;3540;53.242;10.408;2023-02-04T00:08:55;3.00;99.90
7000;DHT22;3540;53.242;10.408;2023-02-04T00:11:21;3.00;99.90
7000;DHT22;3540;53.242;10.408;2023-02-04T00:13:47;3.00;99.90
7000;DHT22;3540;53.242;10.408;2023-02-04T00:16:12;3.00;99.90
7000;DHT22;3540;53.242;10.408;2023-02-04T00:18:38;3.10;99.90
7000;DHT22;3540;53.242;10.408;2023-02-04T00:21:04;3.10;99.90
7000;DHT22;3540;53.242;10.408;2023-02-04T00:23:29;3.20;99.90
7000;DHT22;3540;53.242;10.408;2023-02-04T00:25:55;3.20;99.90
7000;DHT22;3540;53.242;10.408;2023-02-04T00:28:21;3.20;99.90
7000;DHT22;3540;53.242;10.408;2023-02-04T00:30:46;3.20;99.90
7000;DHT22;3540;53.242;10.408;2023-02-04T00:33:12;3.20;99.90
7000;DHT22;3540;53.242;10.408;2023-02-04T00:35:38;3.20;99.90
7000;DHT22;3540;53.242;10.408;2023-02-04T00:38:05;3.30;99.90
7000;DHT22;3540;53.242;10.408;2023-02-04T00:40:31;3.30;99.90
7000;DHT22;3540;53.242;10.408;2023-02-04T00:42:57;3.20;99.90
7000;DHT22;3540;53.242;10.408;2023-02-04T00:45:23;3.20;99.90
7000;DHT22;3540;53.242;10.408;2023-02-04T00:47:48;3.20;99.90
7000;DHT22;3540;53.242;10.408;2023-02-04T00:50:14;3.10;99.90
7000;DHT22;3540;53.242;10.408;2023-02-04T00:52:40;3.10;99.90
7000;DHT22;3540;53.242;10.408;2023-02-04T00:55:06;3.00;99.90
7000;DHT22;3540;53.242;10.408;2023-02-04T00:57:32;3.00;99.90
7000;DHT22;3540;53.242;10.408;2023-02-04T00:59:58;3.00;99.90
7000;DHT22;3540;53.242;10.408;2023-02-04T01:02:24;3.00;99.90
7000;DHT22;3540;53.242;10.408;2023-02-04T01:04:50;3.10;99.90
7000;DHT22;3540;53.242;10.408;2023-02-04T01:07:17;3.20;99.90
7000;DHT22;3540;53.242;10.408;2023-02-04T01:09:42;3.20;99.90
7000;DHT22;3540;53.242;10.408;2023-02-04T01:12:08;3.20;99.90
7000;DHT22;3540;53.242;10.408;2023-02-04T01:14:34;3.20;99.90
7000;DHT22;3540;53.242;10.408;2023-02-04T01:16:59;3.30;99.90
7000;DHT22;3540;53.242;10.408;2023-02-04T01:19:25;3.30;99.90
7000;DHT22;3540;53.242;10.408;2023-02-04T01:21:50;3.40;99.90
7000;DHT22;3540;53.242;10.408;2023-02-04T01:24:16;3.40;99.90
7000;DHT22;3540;53.242;10.408;2023-02-04T01:26:42;3.40;99.90
7000;DHT22;3540;53.242;10.408;2023-02-04T01:29:07;3.40;99.90
7000;DHT22;3540;53.242;10.408;2023-02-04T01:31:33;3.30;99.90
7000;DHT22;3540;53.242;10.408;2023-02-04T01:33:59;3.30;99.90
7000;DHT22;3540;53.242;10.408;2023-02-04T01:36:26;3.30;99.90
7000;DHT22;3540;53.242;10.408;2023-02-04T01:38:52;3.30;99.90
7000;DHT22;3540;53.242;10.408;2023-02-04T01:41:18;3.30;99.90
7000;DHT22;3540;53.242;10.408;2023-02-04T01:43:48;3.30;99.90
7000;DHT22;3540;53.242;10.408;2023-02-04T01:46:14;3.30;99.90
7000;DHT22;3540;53.242;10.408;2023-02-04T01:48:40;3.30;99.90
7000;DHT22;3540;53.242;10.408;2023-02-04T01:51:09;3.30;99.90
7000;DHT22;3540;53.242;10.408;2023-02-04T01:53:36;3.30;99.90
7000;DHT22;3540;53.242;10.408;2023-02-04T01:56:14;3.30;99.90
7000;DHT22;3540;53.242;10.408;2023-02-04T01:58:41;3.20;99.90
7000;DHT22;3540;53.242;10.408;2023-02-04T02:01:31;3.20;99.90
7000;DHT22;3540;53.242;10.408;2023-02-04T02:03:58;3.20;99.90
7000;DHT22;3540;53.242;10.408;2023-02-04T02:06:24;3.20;99.90
7000;DHT22;3540;53.242;10.408;2023-02-04T02:08:50;3.20;99.90
7000;DHT22;3540;53.242;10.408;2023-02-04T02:11:15;3.10;99.90
7000;DHT22;3540;53.242;10.408;2023-02-04T02:13:41;3.20;99.90
7000;DHT22;3540;53.242;10.408;2023-02-04T02:16:07;3.20;99.90
7000;DHT22;3540;53.242;10.408;2023-02-04T02:18:33;3.20;99.90
7000;DHT22;3540;53.242;10.408;2023-02-04T02:21:01;3.20;99.90
7000;DHT22;3540;53.242;10.408;2023-02-04T02:23:49;3.20;99.90
7000;DHT22;3540;53.242;10.408;2023-02-04T02:26:17;3.20;99.90
7000;DHT22;3540;53.242;10.408;2023-02-04T02:28:45;3.10;99.90
7000;DHT22;3540;53.242;10.408;2023-02-04T02:31:13;3.00;99.90
7000;DHT22;3540;53.242;10.408;2023-02-04T02:33:39;3.00;99.90
7000;DHT22;3540;53.242;10.408;2023-02-04T02:36:05;2.90;99.90
7000;DHT22;3540;53.242;10.408;2023-02-04T02:38:33;2.90;99.90
7000;DHT22;3540;53.242;10.408;2023-02-04T02:40:59;2.80;99.90
7000;DHT22;3540;53.242;10.408;2023-02-04T02:43:26;2.80;99.90
7000;DHT22;3540;53.242;10.408;2023-02-04T02:45:54;2.80;99.90
7000;DHT22;3540;53.242;10.408;2023-02-04T02:48:21;2.80;99.90
7000;DHT22;3540;53.242;10.408;2023-02-04T02:50:47;2.70;99.90
7000;DHT22;3540;53.242;10.408;2023-02-04T02:53:15;2.70;99.90
7000;DHT22;3540;53.242;10.408;2023-02-04T02:55:42;2.70;99.90
7000;DHT22;3540;53.242;10.408;2023-02-04T02:58:29;2.70;99.90
7000;DHT22;3540;53.242;10.408;2023-02-04T03:00:57;2.70;99.90
7000;DHT22;3540;53.242;10.408;2023-02-04T03:03:29;2.70;99.90
7000;DHT22;3540;53.242;10.408;2023-02-04T03:06:15;2.60;99.90
7000;DHT22;3540;53.242;10.408;2023-02-04T03:08:41;2.50;99.90
7000;DHT22;3540;53.242;10.408;2023-02-04T03:11:08;2.50;99.90
7000;DHT22;3540;53.242;10.408;2023-02-04T03:13:34;2.40;99.90
7000;DHT22;3540;53.242;10.408;2023-02-04T03:16:02;2.40;99.90
7000;DHT22;3540;53.242;10.408;2023-02-04T03:18:28;2.40;99.90
7000;DHT22;3540;53.242;10.408;2023-02-04T03:20:55;2.40;99.90
7000;DHT22;3540;53.242;10.408;2023-02-04T03:23:21;2.40;99.90
7000;DHT22;3540;53.242;10.408;2023-02-04T03:25:46;2.30;99.90
7000;DHT22;3540;53.242;10.408;2023-02-04T03:28:12;2.30;99.90
7000;DHT22;3540;53.242;10.408;2023-02-04T03:30:38;2.20;99.90
7000;DHT22;3540;53.242;10.408;2023-02-04T03:33:04;2.20;99.90
7000;DHT22;3540;53.242;10.408;2023-02-04T03:35:29;2.20;99.90
7000;DHT22;3540;53.242;10.408;2023-02-04T03:37:55;2.30;99.90
7000;DHT22;3540;53.242;10.408;2023-02-04T03:40:20;2.30;99.90
7000;DHT22;3540;53.242;10.408;2023-02-04T03:42:46;2.40;99.90
7000;DHT22;3540;53.242;10.408;2023-02-04T03:45:12;2.40;99.90
7000;DHT22;3540;53.242;10.408;2023-02-04T03:47:37;2.50;99.90
7000;DHT22;3540;53.242;10.408;2023-02-04T03:50:04;2.50;99.90
7000;DHT22;3540;53.242;10.408;2023-02-04T03:52:29;2.50;99.90
7000;DHT22;3540;53.242;10.408;2023-02-04T03:54:55;2.60;99.90
7000;DHT22;3540;53.242;10.408;2023-02-04T03:57:21;2.60;99.90
7000;DHT22;3540;53.242;10.408;2023-02-04T03:59:46;2.60;99.90
7000;DHT22;3540;53.242;10.408;2023-02-04T04:02:12;2.70;99.90
7000;DHT22;3540;53.242;10.408;2023-02-04T04:04:37;2.70;99.90
7000;DHT22;3540;53.242;10.408;2023-02-04T04:07:03;2.70;99.90
7000;DHT22;3540;53.242;10.408;2023-02-04T04:09:29;2.70;99.90
7000;DHT22;3540;53.242;10.408;2023-02-04T04:11:54;2.70;99.90
7000;DHT22;3540;53.242;10.408;2023-02-04T04:14:20;2.70;99.90
7000;DHT22;3540;53.242;10.408;2023-02-04T04:16:46;2.70;99.90
7000;DHT22;3540;53.242;10.408;2023-02-04T04:19:11;2.70;99.90
7000;DHT22;3540;53.242;10.408;2023-02-04T04:21:37;2.70;99.90
7000;DHT22;3540;53.242;10.408;2023-02-04T04:24:02;2.70;99.90
7000;DHT22;3540;53.242;10.408;2023-02-04T04:26:28;2.70;99.90
7000;DHT22;3540;53.242;10.408;2023-02-04T04:28:54;2.70;99.90
7000;DHT22;3540;53.242;10.408;2023-02-04T04:31:19;2.80;99.90
7000;DHT22;3540;53.242;10.408;2023-02-04T04:33:45;2.80;99.90
7000;DHT22;3540;53.242;10.408;2023-02-04T04:36:10;2.80;99.90
7000;DHT22;3540;53.242;10.408;2023-02-04T04:38:36;2.80;99.90
7000;DHT22;3540;53.242;10.408;2023-02-04T04:41:02;2.90;99.90
7000;DHT22;3540;53.242;10.408;2023-02-04T04:43:27;2.90;99.90
7000;DHT22;3540;53.242;10.408;2023-02-04T04:45:53;2.90;99.90
7000;DHT22;3540;53.242;10.408;2023-02-04T04:48:19;2.80;99.90
7000;DHT22;3540;53.242;10.408;2023-02-04T04:50:45;2.80;99.90
7000;DHT22;3540;53.242;10.408;2023-02-04T04:53:11;2.80;99.90
7000;DHT22;3540;53.242;10.408;2023-02-04T04:55:37;2.80;99.90
7000;DHT22;3540;53.242;10.408;2023-02-04T04:58:04;2.90;99.90
7000;DHT22;3540;53.242;10.408;2023-02-04T05:00:30;2.90;99.90
7000;DHT22;3540;53.242;10.408;2023-02-04T05:02:55;2.90;99.90
7000;DHT22;3540;53.242;10.408;2023-02-04T05:05:21;2.80;99.90
7000;DHT22;3540;53.242;10.408;2023-02-04T05:07:47;2.70;99.90
7000;DHT22;3540;53.242;10.408;2023-02-04T05:10:12;2.60;99.90
7000;DHT22;3540;53.242;10.408;2023-02-04T05:12:38;2.60;99.90
7000;DHT22;3540;53.242;10.408;2023-02-04T05:15:04;2.50;99.90
7000;DHT22;3540;53.242;10.408;2023-02-04T05:17:30;2.50;99.90
7000;DHT22;3540;53.242;10.408;2023-02-04T05:19:56;2.50;99.90
7000;DHT22;3540;53.242;10.408;2023-02-04T05:22:21;2.50;99.90
7000;DHT22;3540;53.242;10.408;2023-02-04T05:24:47;2.60;99.90
7000;DHT22;3540;53.242;10.408;2023-02-04T05:27:13;2.60;99.90
7000;DHT22;3540;53.242;10.408;2023-02-04T05:29:38;2.60;99.90
7000;DHT22;3540;53.242;10.408;2023-02-04T05:32:04;2.60;99.90
7000;DHT22;3540;53.242;10.408;2023-02-04T05:34:30;2.60;99.90
7000;DHT22;3540;53.242;10.408;2023-02-04T05:36:55;2.60;99.90
7000;DHT22;3540;53.242;10.408;2023-02-04T05:39:21;2.60;99.90
7000;DHT22;3540;53.242;10.408;2023-02-04T05:41:46;2.60;99.90
7000;DHT22;3540;53.242;10.408;2023-02-04T05:44:12;2.60;99.90
7000;DHT22;3540;53.242;10.408;2023-02-04T05:46:38;2.60;99.90
7000;DHT22;3540;53.242;10.408;2023-02-04T05:49:04;2.60;99.90
7000;DHT22;3540;53.242;10.408;2023-02-04T05:51:30;2.60;99.90
7000;DHT22;3540;53.242;10.408;2023-02-04T05:53:56;2.60;99.90
7000;DHT22;3540;53.242;10.408;2023-02-04T05:56:21;2.60;99.90
7000;DHT22;3540;53.242;10.408;2023-02-04T05:58:47;2.60;99.90
7000;DHT22;3540;53.242;10.408;2023-02-04T06:01:12;2.60;99.90
7000;DHT22;3540;53.242;10.408;2023-02-04T06:03:38;2.60;99.90
7000;DHT22;3540;53.242;10.408;2023-02-04T06:06:04;2.60;99.90
7000;DHT22;3540;53.242;10.408;2023-02-04T06:08:29;2.60;99.90
7000;DHT22;3540;53.242;10.408;2023-02-04T06:10:55;2.60;99.90
7000;DHT22;3540;53.242;10.408;2023-02-04T06:13:21;2.50;99.90
7000;DHT22;3540;53.242;10.408;2023-02-04T06:15:46;2.50;99.90
7000;DHT22;3540;53.242;10.408;2023-02-04T06:18:12;2.40;99.90
7000;DHT22;3540;53.242;10.408;2023-02-04T06:20:38;2.40;99.90
7000;DHT22;3540;53.242;10.408;2023-02-04T06:23:04;2.40;99.90
7000;DHT22;3540;53.242;10.408;2023-02-04T06:25:32;2.20;99.90
7000;DHT22;3540;53.242;10.408;2023-02-04T06:27:58;2.20;99.90
7000;DHT22;3540;53.242;10.408;2023-02-04T06:30:26;2.10;99.90
7000;DHT22;3540;53.242;10.408;2023-02-04T06:32:52;2.00;99.90
7000;DHT22;3540;53.242;10.408;2023-02-04T06:35:18;1.90;99.90
7000;DHT22;3540;53.242;10.408;2023-02-04T06:37:43;1.80;99.90
7000;DHT22;3540;53.242;10.408;2023-02-04T06:40:10;1.80;99.90
7000;DHT22;3540;53.242;10.408;2023-02-04T06:42:36;1.70;99.90
7000;DHT22;3540;53.242;10.408;2023-02-04T06:45:02;1.80;99.90
7000;DHT22;3540;53.242;10.408;2023-02-04T06:47:28;1.70;99.90
7000;DHT22;3540;53.242;10.408;2023-02-04T06:49:53;1.70;99.90
7000;DHT22;3540;53.242;10.408;2023-02-04T06:52:19;1.60;99.90
7000;DHT22;3540;53.242;10.408;2023-02-04T06:54:45;1.50;99.90
7000;DHT22;3540;53.242;10.408;2023-02-04T06:57:10;1.40;99.90
7000;DHT22;3540;53.242;10.408;2023-02-04T06:59:38;1.40;99.90
7000;DHT22;3540;53.242;10.408;2023-02-04T07:02:05;1.40;99.90
7000;DHT22;3540;53.242;10.408;2023-02-04T07:04:31;1.30;99.90
7000;DHT22;3540;53.242;10.408;2023-02-04T07:06:57;1.30;99.90
7000;DHT22;3540;53.242;10.408;2023-02-04T07:09:23;1.30;99.90
7000;DHT22;3540;53.242;10.408;2023-02-04T07:11:48;1.30;99.90
7000;DHT22;3540;53.242;10.408;2023-02-04T07:14:14;1.20;99.90
7000;DHT22;3540;53.242;10.408;2023-02-04T07:16:40;1.20;99.90
7000;DHT22;3540;53.242;10.408;2023-02-04T07:19:05;1.20;99.90
7000;DHT22;3540;53.242;10.408;2023-02-04T07:21:31;1.20;99.90
7000;DHT22;3540;53.242;10.408;2023-02-04T07:23:57;1.30;99.90
7000;DHT22;3540;53.242;10.408;2023-02-04T07:26:22;1.30;99.90
7000;DHT22;3540;53.242;10.408;2023-02-04T07:28:48;1.30;99.90
7000;DHT22;3540;53.242;10.408;2023-02-04T07:31:14;1.40;99.90
7000;DHT22;3540;53.242;10.408;2023-02-04T07:33:40;1.40;99.90
7000;DHT22;3540;53.242;10.408;2023-02-04T07:36:06;1.40;99.90
7000;DHT22;3540;53.242;10.408;2023-02-04T07:38:31;1.40;99.90
7000;DHT22;3540;53.242;10.408;2023-02-04T07:40:57;1.40;99.90
7000;DHT22;3540;53.242;10.408;2023-02-04T07:43:23;1.40;99.90
7000;DHT22;3540;53.242;10.408;2023-02-04T07:45:49;1.50;99.90
7000;DHT22;3540;53.242;10.408;2023-02-04T07:48:14;1.50;99.90
7000;DHT22;3540;53.242;10.408;2023-02-04T07:50:40;1.50;99.90
7000;DHT22;3540;53.242;10.408;2023-02-04T07:53:06;1.50;99.90
7000;DHT22;3540;53.242;10.408;2023-02-04T07:55:32;1.50;99.90
7000;DHT22;3540;53.242;10.408;2023-02-04T07:57:57;1.60;99.90
7000;DHT22;3540;53.242;10.408;2023-02-04T08:00:23;1.60;99.90
7000;DHT22;3540;53.242;10.408;2023-02-04T08:02:49;1.60;99.90
7000;DHT22;3540;53.242;10.408;2023-02-04T08:05:15;1.60;99.90
7000;DHT22;3540;53.242;10.408;2023-02-04T08:07:40;1.60;99.90
7000;DHT22;3540;53.242;10.408;2023-02-04T08:10:07;1.60;99.90
7000;DHT22;3540;53.242;10.408;2023-02-04T08:12:33;1.60;99.90
7000;DHT22;3540;53.242;10.408;2023-02-04T08:14:59;1.70;99.90
7000;DHT22;3540;53.242;10.408;2023-02-04T08:17:26;1.80;99.90
7000;DHT22;3540;53.242;10.408;2023-02-04T08:19:51;1.90;99.90
7000;DHT22;3540;53.242;10.408;2023-02-04T08:22:17;2.00;99.90
7000;DHT22;3540;53.242;10.408;2023-02-04T08:24:43;2.20;99.90
7000;DHT22;3540;53.242;10.408;2023-02-04T08:27:08;2.20;99.90
7000;DHT22;3540;53.242;10.408;2023-02-04T08:29:34;2.20;99.90
7000;DHT22;3540;53.242;10.408;2023-02-04T08:32:00;2.30;99.90
7000;DHT22;3540;53.242;10.408;2023-02-04T08:34:25;2.20;99.90
7000;DHT22;3540;53.242;10.408;2023-02-04T08:36:53;2.20;99.90
7000;DHT22;3540;53.242;10.408;2023-02-04T08:39:19;2.20;99.90
7000;DHT22;3540;53.242;10.408;2023-02-04T08:41:45;2.30;99.90
7000;DHT22;3540;53.242;10.408;2023-02-04T08:44:10;2.40;99.90
7000;DHT22;3540;53.242;10.408;2023-02-04T08:46:36;2.40;99.90
7000;DHT22;3540;53.242;10.408;2023-02-04T08:49:01;2.40;99.90
7000;DHT22;3540;53.242;10.408;2023-02-04T08:51:27;2.60;99.90
7000;DHT22;3540;53.242;10.408;2023-02-04T08:53:53;2.50;99.90
7000;DHT22;3540;53.242;10.408;2023-02-04T08:56:18;2.50;99.90
7000;DHT22;3540;53.242;10.408;2023-02-04T08:58:45;2.40;99.90
7000;DHT22;3540;53.242;10.408;2023-02-04T09:01:12;2.40;99.90
7000;DHT22;3540;53.242;10.408;2023-02-04T09:03:37;2.60;99.90
7000;DHT22;3540;53.242;10.408;2023-02-04T09:06:04;2.60;99.90
7000;DHT22;3540;53.242;10.408;2023-02-04T09:08:30;2.70;99.90
7000;DHT22;3540;53.242;10.408;2023-02-04T09:10:56;2.80;99.90
7000;DHT22;3540;53.242;10.408;2023-02-04T09:13:22;2.70;99.90
7000;DHT22;3540;53.242;10.408;2023-02-04T09:15:47;2.80;99.90
7000;DHT22;3540;53.242;10.408;2023-02-04T09:18:13;2.90;99.90
7000;DHT22;3540;53.242;10.408;2023-02-04T09:20:44;2.90;99.90
7000;DHT22;3540;53.242;10.408;2023-02-04T09:23:10;2.80;99.90
7000;DHT22;3540;53.242;10.408;2023-02-04T09:25:40;2.70;99.90
7000;DHT22;3540;53.242;10.408;2023-02-04T09:28:08;2.90;99.90
7000;DHT22;3540;53.242;10.408;2023-02-04T09:30:40;3.00;99.90
7000;DHT22;3540;53.242;10.408;2023-02-04T09:33:07;3.00;99.90
7000;DHT22;3540;53.242;10.408;2023-02-04T09:35:33;3.10;99.90
7000;DHT22;3540;53.242;10.408;2023-02-04T09:37:59;3.00;99.90
7000;DHT22;3540;53.242;10.408;2023-02-04T09:40:27;3.00;99.90
7000;DHT22;3540;53.242;10.408;2023-02-04T09:42:54;3.10;99.90
7000;DHT22;3540;53.242;10.408;2023-02-04T09:45:26;3.10;99.90
7000;DHT22;3540;53.242;10.408;2023-02-04T09:47:53;3.10;99.90
7000;DHT22;3540;53.242;10.408;2023-02-04T09:50:21;3.20;99.90
7000;DHT22;3540;53.242;10.408;2023-02-04T09:52:50;3.40;99.90
7000;DHT22;3540;53.242;10.408;2023-02-04T09:55:19;3.40;99.90
7000;DHT22;3540;53.242;10.408;2023-02-04T09:57:46;3.70;99.90
7000;DHT22;3540;53.242;10.408;2023-02-04T10:00:20;3.90;99.90
7000;DHT22;3540;53.242;10.408;2023-02-04T10:02:46;3.70;99.90
7000;DHT22;3540;53.242;10.408;2023-02-04T10:05:34;3.70;99.90
7000;DHT22;3540;53.242;10.408;2023-02-04T10:08:03;3.70;99.90
7000;DHT22;3540;53.242;10.408;2023-02-04T10:10:29;3.70;99.90
7000;DHT22;3540;53.242;10.408;2023-02-04T10:12:58;3.90;99.90
7000;DHT22;3540;53.242;10.408;2023-02-04T10:15:25;4.10;99.90
7000;DHT22;3540;53.242;10.408;2023-02-04T10:17:54;4.30;99.90
7000;DHT22;3540;53.242;10.408;2023-02-04T10:20:26;4.10;99.90
7000;DHT22;3540;53.242;10.408;2023-02-04T10:22:53;4.10;99.90
7000;DHT22;3540;53.242;10.408;2023-02-04T10:25:22;4.00;99.90
7000;DHT22;3540;53.242;10.408;2023-02-04T10:27:56;4.00;99.90
7000;DHT22;3540;53.242;10.408;2023-02-04T10:30:24;4.10;99.90
7000;DHT22;3540;53.242;10.408;2023-02-04T10:32:51;4.10;99.90
7000;DHT22;3540;53.242;10.408;2023-02-04T10:35:18;4.10;99.90
7000;DHT22;3540;53.242;10.408;2023-02-04T10:37:44;4.30;99.90
7000;DHT22;3540;53.242;10.408;2023-02-04T10:40:46;4.30;99.90
7000;DHT22;3540;53.242;10.408;2023-02-04T10:43:17;4.50;99.90
7000;DHT22;3540;53.242;10.408;2023-02-04T10:46:07;4.60;99.90
7000;DHT22;3540;53.242;10.408;2023-02-04T10:48:40;4.40;99.90
7000;DHT22;3540;53.242;10.408;2023-02-04T10:51:10;4.30;99.90
7000;DHT22;3540;53.242;10.408;2023-02-04T10:53:37;4.40;99.90
7000;DHT22;3540;53.242;10.408;2023-02-04T10:56:21;4.60;99.90
7000;DHT22;3540;53.242;10.408;2023-02-04T10:58:47;4.50;99.90
7000;DHT22;3540;53.242;10.408;2023-02-04T11:01:14;4.30;99.90
7000;DHT22;3540;53.242;10.408;2023-02-04T11:03:41;4.40;99.90
7000;DHT22;3540;53.242;10.408;2023-02-04T11:06:12;4.40;99.90
7000;DHT22;3540;53.242;10.408;2023-02-04T11:08:39;4.40;99.90
7000;DHT22;3540;53.242;10.408;2023-02-04T11:11:07;4.30;99.90
7000;DHT22;3540;53.242;10.408;2023-02-04T11:13:40;4.10;99.90
7000;DHT22;3540;53.242;10.408;2023-02-04T11:16:11;4.10;99.90
7000;DHT22;3540;53.242;10.408;2023-02-04T11:18:55;4.10;99.90
7000;DHT22;3540;53.242;10.408;2023-02-04T11:23:49;4.20;99.90
7000;DHT22;3540;53.242;10.408;2023-02-04T11:26:18;4.20;99.90
7000;DHT22;3540;53.242;10.408;2023-02-04T11:33:49;4.30;99.90
7000;DHT22;3540;53.242;10.408;2023-02-04T11:36:16;4.50;99.90
7000;DHT22;3540;53.242;10.408;2023-02-04T11:38:46;4.80;99.90
7000;DHT22;3540;53.242;10.408;2023-02-04T11:41:24;4.90;99.90
7000;DHT22;3540;53.242;10.408;2023-02-04T11:43:52;5.30;99.90
7000;DHT22;3540;53.242;10.408;2023-02-04T11:46:18;5.60;99.90
7000;DHT22;3540;53.242;10.408;2023-02-04T11:48:45;5.90;99.90
7000;DHT22;3540;53.242;10.408;2023-02-04T11:51:13;6.00;99.90
7000;DHT22;3540;53.242;10.408;2023-02-04T11:53:40;5.90;99.90
7000;DHT22;3540;53.242;10.408;2023-02-04T11:56:13;6.00;99.90
7000;DHT22;3540;53.242;10.408;2023-02-04T11:58:40;6.10;99.90
7000;DHT22;3540;53.242;10.408;2023-02-04T12:01:16;6.10;99.90
7000;DHT22;3540;53.242;10.408;2023-02-04T12:03:49;6.20;99.90
7000;DHT22;3540;53.242;10.408;2023-02-04T12:06:29;6.00;99.90
7000;DHT22;3540;53.242;10.408;2023-02-04T12:09:23;5.50;99.90
7000;DHT22;3540;53.242;10.408;2023-02-04T12:11:53;5.20;99.90
7000;DHT22;3540;53.242;10.408;2023-02-04T12:14:19;5.20;99.90
7000;DHT22;3540;53.242;10.408;2023-02-04T12:16:50;4.90;99.90
7000;DHT22;3540;53.242;10.408;2023-02-04T12:19:16;4.70;99.90
7000;DHT22;3540;53.242;10.408;2023-02-04T12:21:42;4.90;99.90
7000;DHT22;3540;53.242;10.408;2023-02-04T12:24:08;5.00;99.90
7000;DHT22;3540;53.242;10.408;2023-02-04T12:26:34;5.10;99.90
7000;DHT22;3540;53.242;10.408;2023-02-04T12:28:59;5.20;99.90
7000;DHT22;3540;53.242;10.408;2023-02-04T12:31:28;4.80;99.90
7000;DHT22;3540;53.242;10.408;2023-02-04T12:33:54;5.00;99.90
7000;DHT22;3540;53.242;10.408;2023-02-04T12:36:20;5.10;99.90
7000;DHT22;3540;53.242;10.408;2023-02-04T12:38:46;5.30;99.90
7000;DHT22;3540;53.242;10.408;2023-02-04T12:41:11;5.60;99.90
7000;DHT22;3540;53.242;10.408;2023-02-04T12:43:37;5.60;99.90
7000;DHT22;3540;53.242;10.408;2023-02-04T12:46:03;5.80;99.90
7000;DHT22;3540;53.242;10.408;2023-02-04T12:48:29;6.00;99.90
7000;DHT22;3540;53.242;10.408;2023-02-04T12:50:54;6.30;99.90
7000;DHT22;3540;53.242;10.408;2023-02-04T12:53:20;5.90;99.90
7000;DHT22;3540;53.242;10.408;2023-02-04T12:55:46;5.90;99.90
7000;DHT22;3540;53.242;10.408;2023-02-04T12:58:11;5.90;99.90
7000;DHT22;3540;53.242;10.408;2023-02-04T13:00:37;5.90;99.90
7000;DHT22;3540;53.242;10.408;2023-02-04T13:03:03;6.20;99.90
7000;DHT22;3540;53.242;10.408;2023-02-04T13:05:29;6.20;99.90
7000;DHT22;3540;53.242;10.408;2023-02-04T13:07:55;5.80;99.90
7000;DHT22;3540;53.242;10.408;2023-02-04T13:10:22;5.50;99.90
7000;DHT22;3540;53.242;10.408;2023-02-04T13:12:49;5.40;99.90
7000;DHT22;3540;53.242;10.408;2023-02-04T13:15:15;5.50;99.90
7000;DHT22;3540;53.242;10.408;2023-02-04T13:17:41;5.80;99.90
7000;DHT22;3540;53.242;10.408;2023-02-04T13:20:07;5.90;99.90
7000;DHT22;3540;53.242;10.408;2023-02-04T13:22:33;5.70;99.90
7000;DHT22;3540;53.242;10.408;2023-02-04T13:24:59;5.50;99.90
7000;DHT22;3540;53.242;10.408;2023-02-04T13:27:25;5.50;99.90
7000;DHT22;3540;53.242;10.408;2023-02-04T13:29:52;5.40;99.90
7000;DHT22;3540;53.242;10.408;2023-02-04T13:32:17;5.30;99.90
7000;DHT22;3540;53.242;10.408;2023-02-04T13:34:43;5.20;99.90
7000;DHT22;3540;53.242;10.408;2023-02-04T13:37:09;5.30;99.90
7000;DHT22;3540;53.242;10.408;2023-02-04T13:39:34;5.20;99.90
7000;DHT22;3540;53.242;10.408;2023-02-04T13:42:00;4.90;99.90
7000;DHT22;3540;53.242;10.408;2023-02-04T13:44:25;5.00;99.90
7000;DHT22;3540;53.242;10.408;2023-02-04T13:46:51;4.80;99.90
7000;DHT22;3540;53.242;10.408;2023-02-04T13:49:17;5.00;99.90
7000;DHT22;3540;53.242;10.408;2023-02-04T13:51:42;5.20;99.90
7000;DHT22;3540;53.242;10.408;2023-02-04T13:54:08;5.30;99.90
7000;DHT22;3540;53.242;10.408;2023-02-04T13:56:34;5.40;99.90
7000;DHT22;3540;53.242;10.408;2023-02-04T13:58:59;5.20;99.90
7000;DHT22;3540;53.242;10.408;2023-02-04T14:01:25;5.20;99.90
7000;DHT22;3540;53.242;10.408;2023-02-04T14:03:50;5.10;99.90
7000;DHT22;3540;53.242;10.408;2023-02-04T14:06:16;4.90;99.90
7000;DHT22;3540;53.242;10.408;2023-02-04T14:08:45;4.70;99.90
7000;DHT22;3540;53.242;10.408;2023-02-04T14:11:11;4.70;99.90
7000;DHT22;3540;53.242;10.408;2023-02-04T14:13:37;4.70;99.90
7000;DHT22;3540;53.242;10.408;2023-02-04T14:16:02;4.80;99.90
7000;DHT22;3540;53.242;10.408;2023-02-04T14:18:29;4.80;99.90
7000;DHT22;3540;53.242;10.408;2023-02-04T14:20:55;4.70;99.90
7000;DHT22;3540;53.242;10.408;2023-02-04T14:23:20;4.60;99.90
7000;DHT22;3540;53.242;10.408;2023-02-04T14:25:46;4.60;99.90
7000;DHT22;3540;53.242;10.408;2023-02-04T14:28:12;4.70;99.90
7000;DHT22;3540;53.242;10.408;2023-02-04T14:30:37;4.60;99.90
7000;DHT22;3540;53.242;10.408;2023-02-04T14:33:03;4.60;99.90
7000;DHT22;3540;53.242;10.408;2023-02-04T14:35:29;4.60;99.90
7000;DHT22;3540;53.242;10.408;2023-02-04T14:37:54;4.50;99.90
7000;DHT22;3540;53.242;10.408;2023-02-04T14:40:20;4.50;99.90
7000;DHT22;3540;53.242;10.408;2023-02-04T14:42:46;4.50;99.90
7000;DHT22;3540;53.242;10.408;2023-02-04T14:45:13;4.40;99.90
7000;DHT22;3540;53.242;10.408;2023-02-04T14:47:39;4.40;99.90
7000;DHT22;3540;53.242;10.408;2023-02-04T14:50:09;4.40;99.90
7000;DHT22;3540;53.242;10.408;2023-02-04T14:52:35;4.30;99.90
7000;DHT22;3540;53.242;10.408;2023-02-04T14:55:01;4.30;99.90
7000;DHT22;3540;53.242;10.408;2023-02-04T14:57:26;4.30;99.90
7000;DHT22;3540;53.242;10.408;2023-02-04T14:59:52;4.20;99.90
7000;DHT22;3540;53.242;10.408;2023-02-04T15:02:17;4.20;99.90
7000;DHT22;3540;53.242;10.408;2023-02-04T15:04:43;4.10;99.90
7000;DHT22;3540;53.242;10.408;2023-02-04T15:07:10;4.00;99.90
7000;DHT22;3540;53.242;10.408;2023-02-04T15:09:36;4.00;99.90
7000;DHT22;3540;53.242;10.408;2023-02-04T15:12:02;3.90;99.90
7000;DHT22;3540;53.242;10.408;2023-02-04T15:14:28;4.00;99.90
7000;DHT22;3540;53.242;10.408;2023-02-04T15:16:53;3.90;99.90
7000;DHT22;3540;53.242;10.408;2023-02-04T15:19:19;3.80;99.90
7000;DHT22;3540;53.242;10.408;2023-02-04T15:21:45;3.80;99.90
7000;DHT22;3540;53.242;10.408;2023-02-04T15:24:11;3.80;99.90
7000;DHT22;3540;53.242;10.408;2023-02-04T15:26:37;3.70;99.90
7000;DHT22;3540;53.242;10.408;2023-02-04T15:29:03;3.70;99.90
7000;DHT22;3540;53.242;10.408;2023-02-04T15:31:29;3.70;99.90
7000;DHT22;3540;53.242;10.408;2023-02-04T15:33:55;3.60;99.90
7000;DHT22;3540;53.242;10.408;2023-02-04T15:36:21;3.50;99.90
7000;DHT22;3540;53.242;10.408;2023-02-04T15:38:47;3.50;99.90
7000;DHT22;3540;53.242;10.408;2023-02-04T15:41:13;3.50;99.90
7000;DHT22;3540;53.242;10.408;2023-02-04T15:43:38;3.40;99.90
7000;DHT22;3540;53.242;10.408;2023-02-04T15:46:04;3.40;99.90
7000;DHT22;3540;53.242;10.408;2023-02-04T15:48:30;3.40;99.90
7000;DHT22;3540;53.242;10.408;2023-02-04T15:50:55;3.30;99.90
7000;DHT22;3540;53.242;10.408;2023-02-04T15:53:21;3.30;99.90
7000;DHT22;3540;53.242;10.408;2023-02-04T15:55:47;3.30;99.90
7000;DHT22;3540;53.242;10.408;2023-02-04T15:58:15;3.20;99.90
7000;DHT22;3540;53.242;10.408;2023-02-04T16:00:41;3.20;99.90
7000;DHT22;3540;53.242;10.408;2023-02-04T16:03:07;3.20;99.90
7000;DHT22;3540;53.242;10.408;2023-02-04T16:05:33;3.20;99.90
7000;DHT22;3540;53.242;10.408;2023-02-04T16:07:59;3.10;99.90